createdAt,value
2019-01-16T00:01:59.854Z,2.23
2019-01-16T00:04:54.376Z,1.93
2019-01-16T00:07:33.241Z,1.73
2019-01-16T00:10:26.962Z,1.70
2019-01-16T00:13:13.147Z,1.43
2019-01-16T00:16:08.154Z,2.27
2019-01-16T00:19:14.624Z,2.47
2019-01-16T00:22:05.541Z,2.20
2019-01-16T00:25:08.811Z,2.30
2019-01-16T00:27:55.163Z,2.50
2019-01-16T00:30:41.814Z,2.73
2019-01-16T00:33:22.632Z,2.30
2019-01-16T00:36:01.136Z,2.30
2019-01-16T00:38:52.137Z,2.50
2019-01-16T00:41:35.463Z,2.30
2019-01-16T00:44:41.831Z,2.80
2019-01-16T00:47:30.667Z,2.40
2019-01-16T00:50:17.281Z,2.80
2019-01-16T00:53:09.588Z,2.70
2019-01-16T00:55:49.247Z,3.37
2019-01-16T00:58:40.517Z,4.27
2019-01-16T01:01:30.448Z,3.60
2019-01-16T01:04:27.787Z,3.50
2019-01-16T01:07:18.998Z,4.20
2019-01-16T01:10:13.306Z,6.50
2019-01-16T01:12:55.692Z,6.73
2019-01-16T01:15:33.040Z,8.07
2019-01-16T01:18:40.520Z,9.67
2019-01-16T01:21:22.207Z,11.17
2019-01-16T01:24:08.121Z,8.10
2019-01-16T01:27:10.434Z,7.80
2019-01-16T01:29:57.778Z,5.93
2019-01-16T01:33:01.720Z,7.63
2019-01-16T01:35:58.824Z,5.90
2019-01-16T01:39:02.217Z,5.23
2019-01-16T01:41:51.838Z,5.67
2019-01-16T01:44:52.658Z,7.40
2019-01-16T01:47:37.511Z,6.93
2019-01-16T01:50:26.978Z,6.27
2019-01-16T01:53:10.274Z,7.10
2019-01-16T01:56:01.498Z,13.53
2019-01-16T01:58:52.696Z,16.03
2019-01-16T02:01:39.372Z,17.80
2019-01-16T02:04:26.937Z,21.43
2019-01-16T02:07:13.544Z,23.27
2019-01-16T02:10:21.704Z,22.87
2019-01-16T02:13:03.190Z,16.47
2019-01-16T02:15:54.132Z,16.23
2019-01-16T02:18:48.183Z,15.27
2019-01-16T02:21:35.013Z,22.00
2019-01-16T02:24:29.223Z,25.60
2019-01-16T02:27:27.050Z,22.33
2019-01-16T02:30:17.222Z,25.97
2019-01-16T02:33:04.027Z,27.67
2019-01-16T02:35:50.963Z,27.77
2019-01-16T02:38:48.012Z,20.00
2019-01-16T02:41:34.882Z,18.40
2019-01-16T02:44:26.220Z,19.37
2019-01-16T02:47:12.957Z,27.73
2019-01-16T02:49:53.042Z,28.83
2019-01-16T02:52:33.903Z,29.83
2019-01-16T02:55:14.899Z,28.77
2019-01-16T02:57:59.408Z,28.87
2019-01-16T03:00:55.183Z,30.40
2019-01-16T03:03:42.225Z,21.03
2019-01-16T03:06:30.633Z,20.23
2019-01-16T03:09:22.294Z,21.63
2019-01-16T03:12:10.507Z,30.43
2019-01-16T03:15:16.911Z,32.23
2019-01-16T03:18:10.977Z,32.83
2019-01-16T03:20:58.451Z,32.30
2019-01-16T03:23:49.848Z,32.30
2019-01-16T03:26:40.833Z,25.57
2019-01-16T03:29:28.892Z,22.07
2019-01-16T03:32:20.345Z,22.87
2019-01-16T03:34:58.461Z,34.83
2019-01-16T03:37:48.802Z,35.50
2019-01-16T03:40:55.354Z,36.33
2019-01-16T03:43:44.066Z,37.20
2019-01-16T03:46:25.282Z,38.10
2019-01-16T03:49:16.294Z,34.80
2019-01-16T03:52:10.324Z,28.33
2019-01-16T03:54:49.784Z,24.50
2019-01-16T03:57:40.542Z,31.33
2019-01-16T04:00:29.404Z,33.17
2019-01-16T04:03:16.322Z,35.70
2019-01-16T04:06:04.504Z,35.20
2019-01-16T04:08:51.003Z,34.03
2019-01-16T04:11:31.813Z,37.00
2019-01-16T04:14:20.098Z,28.63
2019-01-16T04:17:08.601Z,27.60
2019-01-16T04:19:45.963Z,25.97
2019-01-16T04:22:39.945Z,21.90
2019-01-16T04:25:37.533Z,33.57
2019-01-16T04:28:16.029Z,35.17
2019-01-16T04:31:16.453Z,35.50
2019-01-16T04:33:55.283Z,37.10
2019-01-16T04:36:49.495Z,34.50
2019-01-16T04:39:36.095Z,35.33
2019-01-16T04:42:31.057Z,23.93
2019-01-16T04:45:25.048Z,24.03
2019-01-16T04:48:12.052Z,25.60
2019-01-16T04:51:00.232Z,34.33
2019-01-16T04:54:00.222Z,33.27
2019-01-16T04:56:46.903Z,32.23
2019-01-16T04:59:33.736Z,34.23
2019-01-16T05:02:20.707Z,34.03
2019-01-16T05:05:18.196Z,33.03
2019-01-16T05:08:05.249Z,36.30
2019-01-16T05:10:58.500Z,35.00
2019-01-16T05:13:46.760Z,32.57
2019-01-16T05:16:34.981Z,34.63
2019-01-16T05:19:22.784Z,34.93
2019-01-16T05:22:05.160Z,33.50
2019-01-16T05:24:47.992Z,32.83
2019-01-16T05:27:36.734Z,32.20
2019-01-16T05:30:26.521Z,31.70
2019-01-16T05:33:20.718Z,31.03
2019-01-16T05:36:24.643Z,31.43
2019-01-16T05:39:11.700Z,29.60
2019-01-16T05:42:03.499Z,29.90
2019-01-16T05:44:54.204Z,29.37
2019-01-16T05:47:34.081Z,28.13
2019-01-16T05:50:37.133Z,29.43
2019-01-16T05:53:23.789Z,28.13
2019-01-16T05:56:18.118Z,26.20
2019-01-16T05:59:24.522Z,28.37
2019-01-16T06:02:17.977Z,27.93
2019-01-16T06:04:55.746Z,26.10
2019-01-16T06:07:44.698Z,28.63
2019-01-16T06:10:33.623Z,25.37
2019-01-16T06:13:20.350Z,27.03
2019-01-16T06:16:11.316Z,26.13
2019-01-16T06:18:58.100Z,26.23
2019-01-16T06:21:52.527Z,25.23
2019-01-16T06:24:40.754Z,26.10
2019-01-16T06:27:32.580Z,23.60
2019-01-16T06:30:29.684Z,14.57
2019-01-16T06:33:17.919Z,15.80
2019-01-16T06:36:11.988Z,13.73
2019-01-16T06:39:06.312Z,12.73
2019-01-16T06:42:12.654Z,18.27
2019-01-16T06:45:06.750Z,17.67
2019-01-16T06:47:53.582Z,16.97
2019-01-16T06:50:42.411Z,15.73
2019-01-16T06:53:36.347Z,15.50
2019-01-16T06:56:23.317Z,14.60
2019-01-16T06:59:11.467Z,13.60
2019-01-16T07:01:58.388Z,12.97
2019-01-16T07:04:45.433Z,12.73
2019-01-16T07:07:22.649Z,13.90
2019-01-16T07:10:13.564Z,12.83
2019-01-16T07:13:07.521Z,12.53
2019-01-16T07:15:54.332Z,12.60
2019-01-16T07:18:45.567Z,11.83
2019-01-16T07:21:36.097Z,10.87
2019-01-16T07:24:33.211Z,11.43
2019-01-16T07:27:20.012Z,10.40
2019-01-16T07:30:06.379Z,10.40
2019-01-16T07:32:47.520Z,9.60
2019-01-16T07:35:36.584Z,9.97
2019-01-16T07:38:33.576Z,9.30
2019-01-16T07:41:13.606Z,10.03
2019-01-16T07:44:00.600Z,8.80
2019-01-16T07:47:07.010Z,9.63
2019-01-16T07:50:01.176Z,6.93
2019-01-16T07:52:50.540Z,8.10
2019-01-16T07:55:37.046Z,5.60
2019-01-16T07:58:28.122Z,7.87
2019-01-16T08:01:14.828Z,8.00
2019-01-16T08:03:58.586Z,5.33
2019-01-16T08:06:46.585Z,8.43
2019-01-16T08:09:46.844Z,9.03
2019-01-16T08:12:40.857Z,8.63
2019-01-16T08:15:28.895Z,8.53
2019-01-16T08:18:04.023Z,7.83
2019-01-16T08:21:01.431Z,8.60
2019-01-16T08:23:46.092Z,9.17
2019-01-16T08:26:32.959Z,8.03
2019-01-16T08:29:27.069Z,9.00
2019-01-16T08:32:06.671Z,8.47
2019-01-16T08:34:54.774Z,8.73
2019-01-16T08:37:55.373Z,9.17
2019-01-16T08:40:42.351Z,8.40
2019-01-16T08:43:24.520Z,9.00
2019-01-16T08:46:02.983Z,8.03
2019-01-16T08:48:57.416Z,8.50
2019-01-16T08:51:45.715Z,8.73
2019-01-16T08:54:31.691Z,8.13
2019-01-16T08:57:38.040Z,8.57
2019-01-16T09:00:32.686Z,8.23
2019-01-16T09:03:26.562Z,9.07
2019-01-16T09:06:18.268Z,9.70
2019-01-16T09:09:04.845Z,6.53
2019-01-16T09:11:51.707Z,7.27
2019-01-16T09:14:39.444Z,8.37
2019-01-16T09:17:26.397Z,5.20
2019-01-16T09:20:07.121Z,8.70
2019-01-16T09:22:53.836Z,9.93
2019-01-16T09:25:33.803Z,9.13
2019-01-16T09:28:22.247Z,9.80
2019-01-16T09:31:09.426Z,9.17
2019-01-16T09:34:04.416Z,9.50
2019-01-16T09:36:42.239Z,10.37
2019-01-16T09:39:24.603Z,9.67
2019-01-16T09:42:12.117Z,10.13
2019-01-16T09:44:59.177Z,9.90
2019-01-16T09:47:52.945Z,10.50
2019-01-16T09:50:47.812Z,9.87
2019-01-16T09:53:32.712Z,9.33
2019-01-16T09:56:37.087Z,8.90
2019-01-16T09:59:27.389Z,10.67
2019-01-16T10:02:14.663Z,8.63
2019-01-16T10:04:58.337Z,6.87
2019-01-16T10:07:47.778Z,8.50
2019-01-16T10:10:34.670Z,8.27
2019-01-16T10:13:14.110Z,10.80
2019-01-16T10:16:00.944Z,12.07
2019-01-16T10:18:53.066Z,10.90
2019-01-16T10:21:40.092Z,11.53
2019-01-16T10:24:21.218Z,11.73
2019-01-16T10:27:18.498Z,12.20
2019-01-16T10:30:12.648Z,12.80
2019-01-16T10:33:01.909Z,11.63
2019-01-16T10:35:48.799Z,12.87
2019-01-16T10:38:55.119Z,13.23
2019-01-16T10:41:52.727Z,12.60
2019-01-16T10:44:29.049Z,13.47
2019-01-16T10:47:15.145Z,13.90
2019-01-16T10:49:57.913Z,13.77
2019-01-16T10:52:48.666Z,14.07
2019-01-16T10:55:36.295Z,9.20
2019-01-16T10:58:24.600Z,9.70
2019-01-16T11:01:11.555Z,8.37
2019-01-16T11:04:02.543Z,10.80
2019-01-16T11:06:54.009Z,8.63
2019-01-16T11:09:49.703Z,12.33
2019-01-16T11:12:36.567Z,12.63
2019-01-16T11:15:24.886Z,13.40
2019-01-16T11:18:11.926Z,13.83
2019-01-16T11:20:49.582Z,13.43
2019-01-16T11:23:37.016Z,14.30
2019-01-16T11:26:24.501Z,13.47
2019-01-16T11:29:14.281Z,12.70
2019-01-16T11:32:17.384Z,13.00
2019-01-16T11:35:02.862Z,13.20
2019-01-16T11:38:04.188Z,13.60
2019-01-16T11:41:04.565Z,14.07
2019-01-16T11:43:55.546Z,14.67
2019-01-16T11:46:43.585Z,14.47
2019-01-16T11:49:31.264Z,13.67
2019-01-16T11:52:22.454Z,10.33
2019-01-16T11:55:16.692Z,8.57
2019-01-16T11:58:05.889Z,8.03
2019-01-16T12:00:54.397Z,12.00
2019-01-16T12:03:57.175Z,12.60
2019-01-16T12:06:51.567Z,12.70
2019-01-16T12:09:38.326Z,13.30
2019-01-16T12:12:24.975Z,12.60
2019-01-16T12:15:13.731Z,13.20
2019-01-16T12:18:08.134Z,13.70
2019-01-16T12:20:56.925Z,13.57
2019-01-16T12:23:49.061Z,13.53
2019-01-16T12:26:40.923Z,13.13
2019-01-16T12:29:24.468Z,13.50
2019-01-16T12:32:13.152Z,12.00
2019-01-16T12:35:00.257Z,13.47
2019-01-16T12:37:47.280Z,13.67
2019-01-16T12:40:38.473Z,13.77
2019-01-16T12:43:21.128Z,12.80
2019-01-16T12:46:07.762Z,9.70
2019-01-16T12:48:53.485Z,10.90
2019-01-16T12:51:40.400Z,10.37
2019-01-16T12:54:47.352Z,10.87
2019-01-16T12:57:44.948Z,13.13
2019-01-16T13:00:37.775Z,13.57
2019-01-16T13:03:41.947Z,12.93
2019-01-16T13:06:28.682Z,13.43
2019-01-16T13:09:25.935Z,13.37
2019-01-16T13:12:12.532Z,13.90
2019-01-16T13:15:00.734Z,13.80
2019-01-16T13:17:59.375Z,13.73
2019-01-16T13:20:51.324Z,15.50
2019-01-16T13:23:38.389Z,14.37
2019-01-16T13:26:32.443Z,16.17
2019-01-16T13:29:38.597Z,14.80
2019-01-16T13:32:22.292Z,14.37
2019-01-16T13:35:15.087Z,9.87
2019-01-16T13:38:03.279Z,10.17
2019-01-16T13:40:50.193Z,12.37
2019-01-16T13:43:36.806Z,15.37
2019-01-16T13:46:18.318Z,16.47
2019-01-16T13:49:10.024Z,16.20
2019-01-16T13:51:51.480Z,17.37
2019-01-16T13:54:38.525Z,17.23
2019-01-16T13:57:19.282Z,16.90
2019-01-16T14:00:16.576Z,16.37
2019-01-16T14:03:03.776Z,16.73
2019-01-16T14:05:45.070Z,16.53
2019-01-16T14:08:51.410Z,17.33
2019-01-16T14:11:48.072Z,18.33
2019-01-16T14:14:34.547Z,16.53
2019-01-16T14:17:40.682Z,17.57
2019-01-16T14:20:32.623Z,17.20
2019-01-16T14:23:21.972Z,12.77
2019-01-16T14:26:10.180Z,11.23
2019-01-16T14:28:56.793Z,13.80
2019-01-16T14:31:56.236Z,13.13
2019-01-16T14:34:30.773Z,12.33
2019-01-16T14:37:15.135Z,13.90
2019-01-16T14:40:01.995Z,14.57
2019-01-16T14:42:48.509Z,15.57
2019-01-16T14:45:39.849Z,15.40
2019-01-16T14:48:24.507Z,14.77
2019-01-16T14:51:00.269Z,15.57
2019-01-16T14:54:00.772Z,14.83
2019-01-16T14:56:47.379Z,15.27
2019-01-16T14:59:27.053Z,16.43
2019-01-16T15:02:15.289Z,17.27
2019-01-16T15:05:21.334Z,16.17
2019-01-16T15:08:21.496Z,15.77
2019-01-16T15:11:06.222Z,16.47
2019-01-16T15:13:52.918Z,15.43
2019-01-16T15:16:39.868Z,15.47
2019-01-16T15:19:28.228Z,11.47
2019-01-16T15:22:16.413Z,8.73
2019-01-16T15:25:03.372Z,10.97
2019-01-16T15:27:52.844Z,10.93
2019-01-16T15:30:40.538Z,10.30
2019-01-16T15:33:27.404Z,10.33
2019-01-16T15:36:28.844Z,13.03
2019-01-16T15:39:32.430Z,13.07
2019-01-16T15:42:19.308Z,11.93
2019-01-16T15:45:07.679Z,10.67
2019-01-16T15:47:55.915Z,10.90
2019-01-16T15:50:48.179Z,10.30
2019-01-16T15:53:39.271Z,10.33
2019-01-16T15:56:26.126Z,10.73
2019-01-16T15:59:03.132Z,10.00
2019-01-16T16:01:49.935Z,10.00
2019-01-16T16:04:35.103Z,10.00
2019-01-16T16:07:22.033Z,10.23
2019-01-16T16:10:25.261Z,10.23
2019-01-16T16:13:11.219Z,10.87
2019-01-16T16:16:06.091Z,10.73
2019-01-16T16:18:52.811Z,11.37
2019-01-16T16:21:37.941Z,9.23
2019-01-16T16:24:24.746Z,10.57
2019-01-16T16:27:22.159Z,11.67
2019-01-16T16:30:01.676Z,11.23
2019-01-16T16:32:49.555Z,8.37
2019-01-16T16:35:49.548Z,7.40
2019-01-16T16:38:40.744Z,5.73
2019-01-16T16:41:47.540Z,9.53
2019-01-16T16:44:54.065Z,11.20
2019-01-16T16:47:40.782Z,11.50
2019-01-16T16:50:31.221Z,11.50
2019-01-16T16:53:22.229Z,11.57
2019-01-16T16:56:08.894Z,12.77
2019-01-16T16:58:57.711Z,12.37
2019-01-16T17:01:44.599Z,12.73
2019-01-16T17:04:41.969Z,13.33
2019-01-16T17:07:43.151Z,13.10
2019-01-16T17:10:31.688Z,13.37
2019-01-16T17:13:14.537Z,14.67
2019-01-16T17:16:14.938Z,15.83
2019-01-16T17:19:01.611Z,15.50
2019-01-16T17:21:51.117Z,15.47
2019-01-16T17:24:54.213Z,15.00
2019-01-16T17:27:37.137Z,8.77
2019-01-16T17:30:35.927Z,11.07
2019-01-16T17:33:16.975Z,10.10
2019-01-16T17:36:07.578Z,11.07
2019-01-16T17:38:46.291Z,15.40
2019-01-16T17:41:48.945Z,16.30
2019-01-16T17:44:49.168Z,15.83
2019-01-16T17:47:49.290Z,15.37
2019-01-16T17:50:36.602Z,15.70
2019-01-16T17:53:20.420Z,15.13
2019-01-16T17:56:03.638Z,16.50
2019-01-16T17:58:51.957Z,16.17
2019-01-16T18:01:36.319Z,16.50
2019-01-16T18:04:24.736Z,18.47
2019-01-16T18:07:11.412Z,16.97
2019-01-16T18:10:17.857Z,17.30
2019-01-16T18:13:01.120Z,18.23
2019-01-16T18:15:48.409Z,17.90
2019-01-16T18:18:36.151Z,14.20
2019-01-16T18:21:43.196Z,11.60
2019-01-16T18:24:26.410Z,6.80
2019-01-16T18:27:29.345Z,10.87
2019-01-16T18:30:14.215Z,15.20
2019-01-16T18:33:00.961Z,15.73
2019-01-16T18:35:40.047Z,15.37
2019-01-16T18:38:37.437Z,16.23
2019-01-16T18:41:21.067Z,16.03
2019-01-16T18:44:11.969Z,15.00
2019-01-16T18:47:09.293Z,16.60
2019-01-16T18:49:57.868Z,15.07
2019-01-16T18:52:51.841Z,15.73
2019-01-16T18:55:37.549Z,19.10
2019-01-16T18:58:25.702Z,17.33
2019-01-16T19:01:14.269Z,19.87
2019-01-16T19:03:49.247Z,18.37
2019-01-16T19:06:49.599Z,12.93
2019-01-16T19:09:52.731Z,9.70
2019-01-16T19:12:39.254Z,14.57
2019-01-16T19:15:22.875Z,17.93
2019-01-16T19:18:20.140Z,20.60
2019-01-16T19:21:08.165Z,20.03
2019-01-16T19:23:56.351Z,20.57
2019-01-16T19:26:45.272Z,21.33
2019-01-16T19:29:32.116Z,21.93
2019-01-16T19:32:30.492Z,21.63
2019-01-16T19:35:21.825Z,20.07
2019-01-16T19:38:13.890Z,20.50
2019-01-16T19:41:05.192Z,22.23
2019-01-16T19:43:51.913Z,19.60
2019-01-16T19:46:40.095Z,19.70
2019-01-16T19:49:29.833Z,20.40
2019-01-16T19:52:26.824Z,19.43
2019-01-16T19:55:12.407Z,7.90
2019-01-16T19:58:06.598Z,11.97
2019-01-16T20:00:51.365Z,12.07
2019-01-16T20:03:51.344Z,18.07
2019-01-16T20:06:37.747Z,20.07
2019-01-16T20:09:36.679Z,17.67
2019-01-16T20:12:19.445Z,18.93
2019-01-16T20:15:00.394Z,17.37
2019-01-16T20:17:51.563Z,14.97
2019-01-16T20:20:37.418Z,18.67
2019-01-16T20:23:26.026Z,17.57
2019-01-16T20:26:12.872Z,17.20
2019-01-16T20:29:16.186Z,18.73
2019-01-16T20:32:05.780Z,16.70
2019-01-16T20:34:52.755Z,10.83
2019-01-16T20:37:59.698Z,12.57
2019-01-16T20:40:47.980Z,12.07
2019-01-16T20:43:36.188Z,12.87
2019-01-16T20:46:30.171Z,19.73
2019-01-16T20:49:13.055Z,20.40
2019-01-16T20:52:13.423Z,21.57
2019-01-16T20:55:00.009Z,21.90
2019-01-16T20:57:42.487Z,18.37
2019-01-16T21:00:32.733Z,23.60
2019-01-16T21:03:30.355Z,22.33
2019-01-16T21:06:18.571Z,23.20
2019-01-16T21:09:15.763Z,22.73
2019-01-16T21:12:14.161Z,25.30
2019-01-16T21:14:57.089Z,23.47
2019-01-16T21:17:53.998Z,26.07
2019-01-16T21:20:42.684Z,10.73
2019-01-16T21:23:38.677Z,7.77
2019-01-16T21:26:25.608Z,9.30
2019-01-16T21:29:07.269Z,2.73
2019-01-16T21:31:53.894Z,1.30
2019-01-16T21:34:50.924Z,0.83
2019-01-16T21:37:51.200Z,0.80
2019-01-16T21:40:39.384Z,0.47
2019-01-16T21:43:46.210Z,0.40
2019-01-16T21:46:32.992Z,0.77
2019-01-16T21:49:29.635Z,0.50
2019-01-16T21:52:16.169Z,0.50
2019-01-16T21:55:00.162Z,0.40
2019-01-16T21:57:40.318Z,0.60
2019-01-16T22:00:28.856Z,0.90
2019-01-16T22:03:22.745Z,0.60
2019-01-16T22:06:01.913Z,0.70
2019-01-16T22:08:59.273Z,0.70
2019-01-16T22:12:02.273Z,0.90
2019-01-16T22:15:02.370Z,0.90
2019-01-16T22:18:02.679Z,1.03
2019-01-16T22:20:51.173Z,0.80
2019-01-16T22:23:49.068Z,1.03
2019-01-16T22:26:35.808Z,1.03
2019-01-16T22:29:18.673Z,1.07
2019-01-16T22:32:03.974Z,2.10
2019-01-16T22:34:56.976Z,2.27
2019-01-16T22:37:41.560Z,2.93
2019-01-16T22:40:29.197Z,3.93
2019-01-16T22:43:14.088Z,3.50
2019-01-16T22:46:12.172Z,2.80
2019-01-16T22:49:11.090Z,2.30
2019-01-16T22:51:56.170Z,2.37
2019-01-16T22:54:47.412Z,1.50
2019-01-16T22:57:34.116Z,1.90
2019-01-16T23:00:11.450Z,4.03
2019-01-16T23:03:05.838Z,1.87
2019-01-16T23:05:53.993Z,1.70
2019-01-16T23:08:47.116Z,2.20
2019-01-16T23:11:38.284Z,1.07
2019-01-16T23:14:26.593Z,1.43
2019-01-16T23:17:17.553Z,1.30
2019-01-16T23:20:14.497Z,1.23
2019-01-16T23:23:05.697Z,1.80
2019-01-16T23:26:02.124Z,2.00
2019-01-16T23:28:53.730Z,2.00
2019-01-16T23:32:01.255Z,1.73
2019-01-16T23:34:43.621Z,1.40
2019-01-16T23:37:37.420Z,0.90
2019-01-16T23:40:13.645Z,0.87
2019-01-16T23:43:20.017Z,0.70
2019-01-16T23:46:07.212Z,1.23
2019-01-16T23:48:56.951Z,1.27
2019-01-16T23:51:45.618Z,1.10
2019-01-16T23:54:30.502Z,1.03
2019-01-16T23:57:17.536Z,1.80
